Time;durP1;ratioP1;P1;durP2;ratioP2;P2;SDS_P1;SDS_P2;PMS_P1;PMS_P2;Temp;Humidity;BMP_temperature;BMP_pressure;BME280_temperature;BME280_humidity;BME280_pressure;Samples;Min_cycle;Max_cycle;Signal;HPM_P1;HPM_P2
2022/05/18 00:01:22;;;;;;;26.35;17.35;;;17.50;99.90;;;;;;4972468;28;20051;-79
2022/05/18 00:03:48;;;;;;;29.60;18.52;;;17.40;99.90;;;;;;4956414;28;20097;-79
2022/05/18 00:06:15;;;;;;;25.73;18.27;;;17.40;99.90;;;;;;4971379;28;20049;-78
2022/05/18 00:08:41;;;;;;;23.42;17.48;;;17.40;99.90;;;;;;4971250;28;20125;-78
2022/05/18 00:11:15;;;;;;;28.80;18.67;;;17.40;99.90;;;;;;4972226;28;20487;-79
2022/05/18 00:13:43;;;;;;;;;;;17.30;99.90;;;;;;4976422;28;20055;-78
2022/05/18 00:16:09;;;;;;;37.47;18.67;;;17.30;99.90;;;;;;4956036;28;19926;-79
2022/05/18 00:18:35;;;;;;;26.33;18.50;;;17.30;99.90;;;;;;4972591;28;20511;-80
2022/05/18 00:21:03;;;;;;;28.60;18.67;;;17.20;99.90;;;;;;4954743;28;20093;-80
2022/05/18 00:23:30;;;;;;;32.35;19.85;;;17.20;99.90;;;;;;4971301;28;20097;-79
2022/05/18 00:25:56;;;;;;;32.13;19.15;;;17.20;99.90;;;;;;4976792;28;20124;-78
2022/05/18 00:28:22;;;;;;;26.42;16.58;;;17.20;99.90;;;;;;4970811;28;20074;-78
2022/05/18 00:30:48;;;;;;;28.02;18.17;;;17.20;99.90;;;;;;4974601;28;20054;-78
2022/05/18 00:33:14;;;;;;;31.10;20.67;;;17.20;99.90;;;;;;4976807;28;20047;-79
2022/05/18 00:35:41;;;;;;;31.75;18.88;;;17.10;99.90;;;;;;4975992;28;20074;-79
2022/05/18 00:38:08;;;;;;;26.98;19.52;;;17.10;99.90;;;;;;4982508;28;20078;-80
2022/05/18 00:40:36;;;;;;;29.83;19.60;;;17.10;99.90;;;;;;4977596;28;20472;-79
2022/05/18 00:43:02;;;;;;;27.85;18.02;;;17.10;99.90;;;;;;4973851;28;20182;-79
2022/05/18 00:45:29;;;;;;;24.88;17.63;;;17.00;99.90;;;;;;4978702;28;20074;-79
2022/05/18 00:47:55;;;;;;;30.38;17.10;;;17.00;99.90;;;;;;4959059;28;20411;-80
2022/05/18 00:50:30;;;;;;;29.15;17.85;;;17.00;99.90;;;;;;4974926;28;20043;-79
2022/05/18 00:53:05;;;;;;;26.73;16.25;;;17.00;99.90;;;;;;4957886;28;20646;-79
2022/05/18 00:55:36;;;;;;;22.33;16.95;;;17.00;99.90;;;;;;4975043;28;20543;-79
2022/05/18 00:58:07;;;;;;;23.60;17.02;;;16.90;99.90;;;;;;4959596;28;20042;-79
2022/05/18 01:00:35;;;;;;;22.25;15.25;;;16.90;99.90;;;;;;4986213;28;20074;-80
2022/05/18 01:03:12;;;;;;;27.67;15.55;;;16.90;99.90;;;;;;4983904;28;20050;-79
2022/05/18 01:05:40;;;;;;;27.75;15.90;;;16.90;99.90;;;;;;4975427;28;20054;-78
2022/05/18 01:08:09;;;;;;;22.75;15.82;;;16.80;99.90;;;;;;4974741;28;20527;-78
2022/05/18 01:10:34;;;;;;;21.25;15.27;;;16.80;99.90;;;;;;4974717;28;20485;-78
2022/05/18 01:13:02;;;;;;;19.75;13.32;;;16.80;99.90;;;;;;4976280;28;20086;-78
2022/05/18 01:15:29;;;;;;;19.02;12.43;;;16.80;99.90;;;;;;4974515;28;20086;-79
2022/05/18 01:17:58;;;;;;;23.55;13.82;;;16.80;99.90;;;;;;4973291;28;20137;-79
2022/05/18 01:20:28;;;;;;;18.33;13.77;;;16.80;99.90;;;;;;4974523;28;20061;-79
2022/05/18 01:23:06;;;;;;;20.92;14.18;;;16.80;99.90;;;;;;4975803;28;20051;-79
2022/05/18 01:25:35;;;;;;;22.50;15.18;;;16.80;99.90;;;;;;4980678;28;20054;-79
2022/05/18 01:28:02;;;;;;;20.63;13.93;;;16.70;99.90;;;;;;4977533;28;20053;-80
2022/05/18 01:30:30;;;;;;;19.75;13.90;;;16.70;99.90;;;;;;4973064;28;20534;-79
2022/05/18 01:32:57;;;;;;;25.50;14.32;;;16.70;99.90;;;;;;4973154;28;20065;-79
2022/05/18 01:35:28;;;;;;;18.73;12.98;;;16.70;99.90;;;;;;4972632;28;20145;-80
2022/05/18 01:37:57;;;;;;;20.80;14.80;;;16.60;99.90;;;;;;4974439;28;20051;-78
2022/05/18 01:40:35;;;;;;;21.58;13.57;;;16.60;99.90;;;;;;4973969;28;20062;-80
2022/05/18 01:43:20;;;;;;;23.95;12.98;;;16.60;99.90;;;;;;4972922;28;20055;-79
2022/05/18 01:45:58;;;;;;;20.52;13.40;;;16.60;99.90;;;;;;4972899;28;20058;-79
2022/05/18 01:48:28;;;;;;;19.48;13.60;;;16.60;99.90;;;;;;4978155;28;20046;-79
2022/05/18 01:50:54;;;;;;;19.83;13.60;;;16.50;99.90;;;;;;4972879;28;20459;-80
2022/05/18 01:53:20;;;;;;;20.60;13.50;;;16.50;99.90;;;;;;4975234;28;20452;-79
2022/05/18 01:55:47;;;;;;;21.55;13.88;;;16.40;99.90;;;;;;4973626;28;20498;-79
2022/05/18 01:58:14;;;;;;;20.30;13.18;;;16.40;99.90;;;;;;4972169;28;20057;-80
2022/05/18 02:00:41;;;;;;;17.58;13.25;;;16.30;99.90;;;;;;4974161;28;20054;-79
2022/05/18 02:03:07;;;;;;;19.20;13.43;;;16.20;99.90;;;;;;4974003;28;20089;-79
2022/05/18 02:05:34;;;;;;;21.30;11.50;;;16.20;99.90;;;;;;4981977;28;20058;-79
2022/05/18 02:08:00;;;;;;;22.10;14.65;;;16.10;99.90;;;;;;4976435;28;20055;-79
2022/05/18 02:10:26;;;;;;;23.13;13.60;;;16.10;99.90;;;;;;4972433;28;20095;-80
2022/05/18 02:12:53;;;;;;;23.20;13.23;;;16.10;99.90;;;;;;4972182;28;20058;-80
2022/05/18 02:15:19;;;;;;;23.67;12.90;;;16.10;99.90;;;;;;4972189;28;20055;-80
2022/05/18 02:17:45;;;;;;;18.27;11.57;;;16.00;99.90;;;;;;4973567;28;20106;-78
2022/05/18 02:20:12;;;;;;;23.17;13.45;;;16.10;99.90;;;;;;4972179;28;20054;-79
2022/05/18 02:22:38;;;;;;;20.98;12.57;;;16.00;99.90;;;;;;4976107;28;20569;-78
2022/05/18 02:25:04;;;;;;;20.55;13.05;;;16.00;99.90;;;;;;4977541;28;20062;-80
2022/05/18 02:27:31;;;;;;;22.60;13.52;;;15.90;99.90;;;;;;4972144;28;20496;-79
2022/05/18 02:29:57;;;;;;;17.15;12.27;;;15.90;99.90;;;;;;4972067;28;20059;-79
2022/05/18 02:32:23;;;;;;;17.63;11.02;;;15.90;99.90;;;;;;4971864;28;20518;-79
2022/05/18 02:34:49;;;;;;;18.77;11.90;;;15.90;99.90;;;;;;4973310;28;20047;-80
2022/05/18 02:37:15;;;;;;;19.98;12.07;;;15.90;99.90;;;;;;4989592;28;20483;-79
2022/05/18 02:39:41;;;;;;;15.80;11.50;;;15.90;99.90;;;;;;4972793;28;20051;-80
2022/05/18 02:42:07;;;;;;;16.58;11.10;;;15.80;99.90;;;;;;4956806;28;20066;-79
2022/05/18 02:44:33;;;;;;;18.88;10.77;;;15.80;99.90;;;;;;4975711;28;20526;-79
2022/05/18 02:46:59;;;;;;;15.30;10.95;;;15.80;99.90;;;;;;4982604;28;20047;-78
2022/05/18 02:49:26;;;;;;;19.35;12.63;;;15.80;99.90;;;;;;4975914;28;20081;-80
2022/05/18 02:51:53;;;;;;;14.88;10.18;;;15.70;99.90;;;;;;4975659;28;20491;-78
2022/05/18 02:57:05;;;;;;;17.48;11.35;;;15.70;99.90;;;;;;4975226;28;20062;-79
2022/05/18 02:59:31;;;;;;;14.00;10.90;;;15.70;99.90;;;;;;4974917;28;20054;-79
2022/05/18 03:01:58;;;;;;;17.67;11.48;;;15.60;99.90;;;;;;4972493;28;20426;-79
2022/05/18 03:04:24;;;;;;;19.85;11.73;;;15.60;99.90;;;;;;4971551;28;20051;-79
2022/05/18 03:06:50;;;;;;;13.98;9.98;;;15.60;99.90;;;;;;4972940;28;20058;-79
2022/05/18 03:09:17;;;;;;;11.52;9.15;;;15.50;99.90;;;;;;4976649;28;20050;-79
2022/05/18 03:11:44;;;;;;;17.95;9.95;;;15.50;99.90;;;;;;4976157;28;20438;-80
2022/05/18 03:14:10;;;;;;;16.58;10.35;;;15.50;99.90;;;;;;4973186;28;20059;-79
2022/05/18 03:16:37;;;;;;;13.57;9.70;;;15.50;99.90;;;;;;4972260;28;20434;-79
2022/05/18 03:19:04;;;;;;;15.43;10.20;;;15.40;99.90;;;;;;4972990;28;20058;-80
2022/05/18 03:24:14;;;;;;;12.25;8.65;;;15.40;99.90;;;;;;4972276;28;20125;-80
2022/05/18 03:26:40;;;;;;;17.15;8.85;;;15.40;99.90;;;;;;4971932;28;20110;-78
2022/05/18 03:29:06;;;;;;;14.50;9.93;;;15.40;99.90;;;;;;4971285;28;20073;-79
2022/05/18 03:31:32;;;;;;;14.77;9.48;;;15.40;99.90;;;;;;4971560;28;20047;-80
2022/05/18 03:33:58;;;;;;;12.93;8.25;;;15.30;99.90;;;;;;4974574;28;20089;-79
2022/05/18 03:36:24;;;;;;;14.35;9.43;;;15.30;99.90;;;;;;4955354;28;20090;-79
2022/05/18 03:38:52;;;;;;;13.85;8.55;;;15.40;99.90;;;;;;4972353;28;20451;-79
2022/05/18 03:41:18;;;;;;;14.35;9.02;;;15.40;99.90;;;;;;4973660;28;20105;-79
2022/05/18 03:43:45;;;;;;;12.88;8.45;;;15.40;99.90;;;;;;4972478;28;20578;-77
2022/05/18 03:46:12;;;;;;;13.32;7.07;;;15.40;99.90;;;;;;4972311;28;20129;-80
2022/05/18 03:48:39;;;;;;;14.93;8.25;;;15.40;99.90;;;;;;4972530;28;20090;-78
2022/05/18 03:51:08;;;;;;;15.55;8.50;;;15.40;99.90;;;;;;4970926;28;20055;-78
2022/05/18 03:53:34;;;;;;;12.85;8.07;;;15.40;99.90;;;;;;4977656;28;20047;-78
2022/05/18 03:56:01;;;;;;;12.75;7.35;;;15.40;99.90;;;;;;4974293;28;20061;-78
2022/05/18 03:58:27;;;;;;;13.40;8.82;;;15.40;99.90;;;;;;4956327;28;20454;-78
2022/05/18 04:00:59;;;;;;;13.80;8.60;;;15.40;99.90;;;;;;4972242;28;20194;-78
2022/05/18 04:03:27;;;;;;;12.32;8.55;;;15.40;99.90;;;;;;4954938;28;20098;-79
2022/05/18 04:05:53;;;;;;;13.65;9.20;;;15.40;99.90;;;;;;4972953;28;20172;-79
2022/05/18 04:08:20;;;;;;;13.55;8.43;;;15.40;99.90;;;;;;4977291;28;20047;-78
2022/05/18 04:10:46;;;;;;;15.00;9.25;;;15.50;99.90;;;;;;4974848;28;20055;-78
2022/05/18 04:13:18;;;;;;;14.38;8.48;;;15.50;99.90;;;;;;4977309;28;20050;-79
2022/05/18 04:15:44;;;;;;;12.40;8.02;;;15.50;99.90;;;;;;4984118;28;20064;-77
2022/05/18 04:18:10;;;;;;;13.90;8.20;;;15.50;99.90;;;;;;4975330;28;20046;-78
2022/05/18 04:20:36;;;;;;;15.05;8.75;;;15.50;99.90;;;;;;4975812;28;20117;-79
2022/05/18 04:23:01;;;;;;;15.98;9.65;;;15.50;99.90;;;;;;4960067;28;20043;-79
2022/05/18 04:25:29;;;;;;;11.80;7.82;;;15.60;99.90;;;;;;4974518;28;20117;-79
2022/05/18 04:27:56;;;;;;;14.05;7.57;;;15.60;99.90;;;;;;4975451;28;20510;-80
2022/05/18 04:30:24;;;;;;;12.52;8.20;;;15.60;99.90;;;;;;4975644;28;20047;-79
2022/05/18 04:32:51;;;;;;;13.75;8.27;;;15.60;99.90;;;;;;4976026;28;20062;-78
2022/05/18 04:35:22;;;;;;;15.52;8.65;;;15.70;99.90;;;;;;4978098;28;20050;-79
2022/05/18 04:37:48;;;;;;;13.65;7.90;;;15.70;99.90;;;;;;4975532;28;20065;-79
2022/05/18 04:40:14;;;;;;;15.40;7.78;;;15.80;99.90;;;;;;4975799;28;20046;-80
2022/05/18 04:42:40;;;;;;;13.75;8.60;;;15.80;99.90;;;;;;4974471;28;20063;-79
2022/05/18 04:45:09;;;;;;;13.55;8.38;;;15.90;99.90;;;;;;4976948;28;20066;-80
2022/05/18 04:47:36;;;;;;;13.32;8.23;;;16.00;99.90;;;;;;4981130;28;20047;-80
2022/05/18 04:50:02;;;;;;;9.63;7.15;;;16.00;99.90;;;;;;4974156;28;20101;-79
2022/05/18 04:52:28;;;;;;;12.95;7.57;;;16.10;99.90;;;;;;4975161;28;20072;-78
2022/05/18 04:54:55;;;;;;;12.35;7.43;;;16.10;99.90;;;;;;4976614;28;20055;-79
2022/05/18 04:57:22;;;;;;;11.23;7.55;;;16.20;99.90;;;;;;4973498;28;20055;-80
2022/05/18 04:59:48;;;;;;;11.63;7.47;;;16.30;99.90;;;;;;4976284;28;20113;-80
2022/05/18 05:02:14;;;;;;;8.75;6.85;;;16.30;99.90;;;;;;4957589;28;20067;-79
2022/05/18 05:04:41;;;;;;;12.43;7.63;;;16.30;99.90;;;;;;4974945;28;20401;-80
2022/05/18 05:07:07;;;;;;;10.90;7.10;;;16.40;99.90;;;;;;4957334;28;20050;-80
2022/05/18 05:09:33;;;;;;;13.07;8.50;;;16.50;99.90;;;;;;4975612;28;20755;-80
2022/05/18 05:11:59;;;;;;;12.95;8.15;;;16.60;99.90;;;;;;4983197;28;20538;-79
2022/05/18 05:14:25;;;;;;;16.73;7.63;;;16.70;99.90;;;;;;4974069;28;20400;-80
2022/05/18 05:16:51;;;;;;;15.80;8.20;;;16.80;99.90;;;;;;4972724;28;20133;-79
2022/05/18 05:19:17;;;;;;;12.40;8.18;;;16.90;99.90;;;;;;4973390;28;20059;-78
2022/05/18 05:21:44;;;;;;;14.43;7.93;;;16.90;99.90;;;;;;4974645;28;20050;-79
2022/05/18 05:24:14;;;;;;;14.35;7.50;;;17.00;99.90;;;;;;4974544;28;20082;-78
2022/05/18 05:26:42;;;;;;;13.00;7.95;;;17.10;99.90;;;;;;4974640;28;20082;-79
2022/05/18 05:29:08;;;;;;;13.43;7.97;;;17.20;99.90;;;;;;4976147;28;20051;-79
2022/05/18 05:31:35;;;;;;;14.82;8.38;;;17.30;99.90;;;;;;4981442;28;20061;-79
2022/05/18 05:34:01;;;;;;;10.90;7.22;;;17.40;99.90;;;;;;4975202;28;20055;-80
2022/05/18 05:36:28;;;;;;;12.93;7.93;;;17.40;99.90;;;;;;4972837;28;20065;-79
2022/05/18 05:38:54;;;;;;;11.27;7.72;;;17.40;99.90;;;;;;4973252;28;20059;-79
2022/05/18 05:41:20;;;;;;;11.60;7.63;;;17.50;99.90;;;;;;4991774;28;20054;-78
2022/05/18 05:43:46;;;;;;;14.65;8.13;;;17.60;99.90;;;;;;4972813;28;20102;-78
2022/05/18 05:46:13;;;;;;;13.75;7.20;;;17.60;99.90;;;;;;4972802;28;20057;-79
2022/05/18 05:48:41;;;;;;;11.85;8.10;;;17.60;99.90;;;;;;4976767;28;20061;-78
2022/05/18 05:51:13;;;;;;;12.50;8.00;;;17.70;99.90;;;;;;4979010;28;20125;-78
2022/05/18 05:53:41;;;;;;;16.90;7.85;;;17.70;99.90;;;;;;4975054;28;20046;-78
2022/05/18 05:56:07;;;;;;;11.75;8.32;;;17.80;99.90;;;;;;4972521;28;20063;-79
2022/05/18 05:58:35;;;;;;;15.32;9.20;;;17.80;99.90;;;;;;4956686;28;20057;-79
2022/05/18 06:01:06;;;;;;;14.50;8.35;;;18.00;99.90;;;;;;4973141;28;20062;-79
2022/05/18 06:03:33;;;;;;;13.80;8.82;;;18.10;99.90;;;;;;4956544;28;20059;-79
2022/05/18 06:06:00;;;;;;;13.48;8.85;;;18.20;99.90;;;;;;4973160;28;20090;-76
2022/05/18 06:08:27;;;;;;;13.98;9.13;;;18.30;99.90;;;;;;4959146;28;20055;-78
2022/05/18 06:10:53;;;;;;;19.70;9.20;;;18.40;99.90;;;;;;4976154;28;20081;-80
2022/05/18 06:13:19;;;;;;;12.73;8.52;;;18.50;99.90;;;;;;4975277;28;20058;-78
2022/05/18 06:15:45;;;;;;;13.70;9.43;;;18.60;99.90;;;;;;4972592;28;20046;-79
2022/05/18 06:18:11;;;;;;;13.50;8.57;;;18.80;99.90;;;;;;4956508;28;20054;-79
2022/05/18 06:20:38;;;;;;;16.15;9.98;;;19.00;99.90;;;;;;4957959;28;20043;-80
2022/05/18 06:23:08;;;;;;;13.27;8.80;;;19.10;99.90;;;;;;4957242;28;20059;-81
2022/05/18 06:25:35;;;;;;;15.48;9.30;;;19.30;99.90;;;;;;4972779;28;20054;-80
2022/05/18 06:28:01;;;;;;;14.77;9.50;;;19.40;99.90;;;;;;4974288;28;20043;-81
2022/05/18 06:30:27;;;;;;;14.95;8.68;;;19.50;99.90;;;;;;4973244;28;20069;-81
2022/05/18 06:32:53;;;;;;;15.77;9.73;;;19.70;99.90;;;;;;4973475;28;20051;-80
2022/05/18 06:35:19;;;;;;;16.80;9.85;;;19.80;99.90;;;;;;4976004;28;20055;-81
2022/05/18 06:37:45;;;;;;;15.82;9.38;;;19.90;99.90;;;;;;4972762;28;20134;-81
2022/05/18 06:40:12;;;;;;;16.05;10.68;;;20.10;99.90;;;;;;4975228;28;20559;-80
2022/05/18 06:42:38;;;;;;;12.73;9.25;;;20.10;99.90;;;;;;4981544;28;20415;-81
2022/05/18 06:45:08;;;;;;;19.80;11.32;;;20.30;99.90;;;;;;4955041;28;20046;-80
2022/05/18 06:47:35;;;;;;;16.17;10.23;;;20.50;99.90;;;;;;4973400;28;20062;-80
2022/05/18 06:50:01;;;;;;;15.23;9.77;;;20.60;99.90;;;;;;4957769;28;20046;-79
2022/05/18 06:52:27;;;;;;;14.20;9.23;;;20.70;99.90;;;;;;4972286;28;20054;-82
2022/05/18 06:54:54;;;;;;;16.10;9.55;;;20.80;99.90;;;;;;4955986;28;20570;-82
2022/05/18 06:57:20;;;;;;;18.73;9.95;;;21.00;99.90;;;;;;4973229;28;20065;-82
2022/05/18 06:59:46;;;;;;;15.05;9.90;;;21.10;99.90;;;;;;4971546;28;20082;-82
2022/05/18 07:02:12;;;;;;;16.27;10.35;;;21.30;99.90;;;;;;4970407;28;20089;-82
2022/05/18 07:04:38;;;;;;;19.10;10.82;;;21.40;99.90;;;;;;4974583;28;20059;-80
2022/05/18 07:07:04;;;;;;;13.05;10.77;;;21.50;99.90;;;;;;4954652;28;20141;-82
2022/05/18 07:09:30;;;;;;;16.48;9.40;;;21.60;99.90;;;;;;4973722;28;20495;-83
2022/05/18 07:11:56;;;;;;;18.10;11.50;;;21.70;99.90;;;;;;4974047;28;20509;-81
2022/05/18 07:14:27;;;;;;;15.73;10.10;;;21.80;99.90;;;;;;4977476;28;20105;-82
2022/05/18 07:16:54;;;;;;;18.15;10.27;;;21.80;99.90;;;;;;4979976;28;20050;-84
2022/05/18 07:19:20;;;;;;;13.95;10.23;;;21.90;99.90;;;;;;4978338;28;20051;-81
2022/05/18 07:21:47;;;;;;;16.48;11.63;;;22.10;99.90;;;;;;4980146;28;20114;-83
2022/05/18 07:24:14;;;;;;;16.33;10.82;;;22.00;99.90;;;;;;4975345;28;20060;-82
2022/05/18 07:26:41;;;;;;;16.85;12.00;;;22.00;99.90;;;;;;4973250;28;20056;-82
2022/05/18 07:29:08;;;;;;;16.52;11.18;;;22.10;99.90;;;;;;4979540;28;20058;-82
2022/05/18 07:32:08;;;;;;;18.38;11.48;;;22.10;99.90;;;;;;4975068;28;20058;-86
2022/05/18 07:34:22;;;;;;;17.52;10.80;;;22.10;99.90;;;;;;4967865;28;20059;-83
2022/05/18 07:36:53;;;;;;;17.92;11.63;;;22.30;99.90;;;;;;4954587;28;20062;-82
2022/05/18 07:39:19;;;;;;;20.55;12.07;;;22.50;99.90;;;;;;4957882;28;20563;-82
2022/05/18 07:41:46;;;;;;;15.00;10.70;;;22.60;99.90;;;;;;4961616;28;20055;-83
2022/05/18 07:44:13;;;;;;;17.20;12.25;;;22.80;99.90;;;;;;4955750;28;20043;-82
2022/05/18 07:46:39;;;;;;;19.55;11.65;;;22.90;99.90;;;;;;4961205;28;20107;-82
2022/05/18 07:49:05;;;;;;;17.77;11.88;;;23.00;99.90;;;;;;4972039;28;20050;-82
2022/05/18 07:51:32;;;;;;;20.13;12.57;;;23.20;99.90;;;;;;4972688;28;20069;-80
2022/05/18 07:53:59;;;;;;;16.17;11.55;;;23.30;99.90;;;;;;4965610;28;20059;-82
2022/05/18 07:56:25;;;;;;;17.63;11.13;;;23.50;99.90;;;;;;4965715;28;20499;-85
2022/05/18 07:58:51;;;;;;;21.38;13.25;;;23.70;99.90;;;;;;4974958;28;20114;-82
2022/05/18 08:01:17;;;;;;;18.23;11.52;;;23.70;99.90;;;;;;4966668;28;20051;-82
2022/05/18 08:03:48;;;;;;;23.08;13.27;;;23.90;99.90;;;;;;4978822;28;20109;-84
2022/05/18 08:06:14;;;;;;;20.13;12.07;;;24.10;99.90;;;;;;4972934;28;20066;-81
2022/05/18 08:08:41;;;;;;;23.25;12.88;;;24.10;99.90;;;;;;4973258;28;20102;-86
2022/05/18 08:16:35;;;;;;;19.00;10.80;;;24.50;99.90;;;;;;4955207;28;20077;-82
2022/05/18 08:19:02;;;;;;;13.40;9.95;;;24.80;99.90;;;;;;4968060;28;20058;-85
2022/05/18 08:21:28;;;;;;;15.57;9.57;;;24.80;99.20;;;;;;4959746;28;20073;-82
2022/05/18 08:23:54;;;;;;;16.33;9.75;;;25.00;98.60;;;;;;4958632;28;20047;-80
2022/05/18 08:26:20;;;;;;;14.00;9.95;;;25.10;97.80;;;;;;4961984;28;20126;-80
2022/05/18 08:28:47;;;;;;;14.13;9.30;;;25.30;98.40;;;;;;4958446;28;20052;-79
2022/05/18 08:31:15;;;;;;;17.40;9.23;;;25.20;96.90;;;;;;4972125;28;20061;-82
2022/05/18 08:33:40;;;;;;;19.85;9.98;;;25.40;96.50;;;;;;4954107;28;20055;-84
2022/05/18 08:36:09;;;;;;;13.30;8.20;;;25.40;96.60;;;;;;4952470;28;20409;-85
2022/05/18 08:38:36;;;;;;;18.58;8.88;;;25.50;95.90;;;;;;4951426;28;20054;-88
2022/05/18 08:41:12;;;;;;;15.07;7.90;;;25.60;95.40;;;;;;4952760;28;20102;-85
2022/05/18 08:43:44;;;;;;;11.77;7.20;;;25.70;94.80;;;;;;4965072;28;20058;-88
2022/05/18 08:46:45;;;;;;;10.80;6.78;;;25.90;93.80;;;;;;4974373;28;20422;-84
2022/05/18 08:49:36;;;;;;;11.98;7.68;;;26.00;93.70;;;;;;4974982;28;20059;-88
2022/05/18 08:52:21;;;;;;;18.83;6.95;;;26.00;93.50;;;;;;4983847;28;20085;-87
2022/05/18 08:54:49;;;;;;;10.85;7.57;;;26.20;94.20;;;;;;4975547;28;20093;-84
2022/05/18 08:57:20;;;;;;;12.38;8.20;;;26.40;94.30;;;;;;4975455;28;20102;-86
2022/05/18 08:59:51;;;;;;;12.55;8.38;;;26.20;93.10;;;;;;4971213;28;20534;-87
2022/05/18 09:02:21;;;;;;;13.40;8.98;;;26.20;93.10;;;;;;4945042;29;20051;-83
2022/05/18 09:05:03;;;;;;;19.10;8.95;;;26.10;92.50;;;;;;4953839;29;21710;-81
2022/05/18 09:07:36;;;;;;;15.65;9.75;;;26.00;93.40;;;;;;4940956;29;20061;-83
2022/05/18 09:10:12;;;;;;;13.45;9.30;;;26.20;93.50;;;;;;4937628;29;20059;-82
2022/05/18 09:12:41;;;;;;;13.45;9.68;;;26.30;93.20;;;;;;4941798;29;20079;-83
2022/05/18 09:15:12;;;;;;;14.13;9.45;;;26.50;93.70;;;;;;4956748;29;20093;-85
2022/05/18 09:18:04;;;;;;;13.80;9.57;;;26.50;93.20;;;;;;4956445;29;20074;-88
2022/05/18 09:21:11;;;;;;;17.40;12.25;;;26.60;93.70;;;;;;4937792;29;20055;-82
2022/05/18 09:23:55;;;;;;;19.80;11.80;;;26.50;93.30;;;;;;4914501;29;20058;-81
2022/05/18 09:26:21;;;;;;;;;;;26.40;94.40;;;;;;4960161;29;20047;-86
2022/05/18 09:28:53;;;;;;;23.15;13.15;;;26.60;93.80;;;;;;4939531;29;19977;-82
2022/05/18 09:31:58;;;;;;;23.85;14.88;;;26.30;94.20;;;;;;4952747;29;20051;-82
2022/05/18 09:34:43;;;;;;;24.80;15.75;;;26.30;94.50;;;;;;4938231;29;20066;-81
2022/05/18 09:37:18;;;;;;;25.45;16.00;;;26.30;94.10;;;;;;4955532;29;20539;-81
2022/05/18 09:39:51;;;;;;;21.70;15.45;;;26.40;94.40;;;;;;4936974;29;20055;-83
2022/05/18 09:42:20;;;;;;;21.37;15.63;;;26.20;94.70;;;;;;4956074;29;20094;-86
2022/05/18 09:45:02;;;;;;;20.40;15.20;;;26.00;95.20;;;;;;4942280;29;20079;-84
2022/05/18 09:47:35;;;;;;;22.42;15.95;;;26.00;95.70;;;;;;4956976;29;20506;-86
2022/05/18 09:50:06;;;;;;;20.60;15.53;;;25.90;95.80;;;;;;4956167;29;20051;-87
2022/05/18 09:52:34;;;;;;;21.33;14.77;;;25.90;96.50;;;;;;4938794;29;20051;-87
2022/05/18 09:55:02;;;;;;;26.98;17.77;;;26.00;96.50;;;;;;4937958;29;20408;-84
2022/05/18 09:57:50;;;;;;;20.48;14.40;;;25.80;96.40;;;;;;4963832;29;20066;-82
2022/05/18 10:00:21;;;;;;;22.70;16.25;;;26.20;96.40;;;;;;4923919;29;20066;-85
2022/05/18 10:08:28;;;;;;;20.55;16.20;;;27.00;95.10;;;;;;4972367;28;20093;-85
2022/05/18 10:11:19;;;;;;;24.95;16.95;;;27.30;94.90;;;;;;4965732;28;20130;-88
2022/05/18 10:14:10;;;;;;;21.42;15.93;;;27.20;94.60;;;;;;4965678;28;20047;-84
2022/05/18 10:17:01;;;;;;;24.27;17.40;;;27.30;93.30;;;;;;4971686;28;20055;-83
2022/05/18 10:19:43;;;;;;;27.08;17.38;;;27.40;93.30;;;;;;4981042;28;20106;-87
2022/05/18 10:22:13;;;;;;;24.50;16.70;;;27.10;93.40;;;;;;4975659;28;20482;-86
2022/05/18 10:24:45;;;;;;;21.75;17.10;;;26.80;93.50;;;;;;4971824;28;20051;-85
2022/05/18 10:27:21;;;;;;;21.27;16.00;;;26.60;93.80;;;;;;4973893;28;20078;-86
2022/05/18 10:30:11;;;;;;;28.13;16.88;;;26.50;93.90;;;;;;4975253;28;20058;-76
2022/05/18 10:32:59;;;;;;;27.20;17.58;;;26.30;94.10;;;;;;4974122;28;20046;-80
2022/05/18 10:35:48;;;;;;;29.70;17.55;;;26.20;93.80;;;;;;4981455;28;20042;-80
2022/05/18 10:38:31;;;;;;;23.77;17.30;;;26.10;94.30;;;;;;4980601;28;20059;-90
2022/05/18 10:41:06;;;;;;;29.07;17.07;;;26.40;94.10;;;;;;4977949;28;20073;-87
2022/05/18 10:43:36;;;;;;;24.17;17.02;;;26.60;93.50;;;;;;4957350;29;20047;-86
2022/05/18 10:46:17;;;;;;;23.27;16.48;;;26.80;93.60;;;;;;4965366;28;20047;-85
2022/05/18 10:49:04;;;;;;;30.52;17.42;;;27.00;93.50;;;;;;4974659;28;20145;-90
2022/05/18 10:51:40;;;;;;;22.05;16.92;;;26.60;94.00;;;;;;4973834;28;20101;-87
2022/05/18 10:54:13;;;;;;;27.55;17.25;;;26.80;94.30;;;;;;4989140;28;20050;-85
2022/05/18 10:56:39;;;;;;;22.53;15.97;;;27.10;94.20;;;;;;4973850;28;20569;-85
2022/05/18 10:59:33;;;;;;;39.58;18.55;;;27.40;93.30;;;;;;4972357;28;20161;-86
2022/05/18 11:02:06;;;;;;;27.58;16.73;;;27.30;91.60;;;;;;4975926;28;20078;-85
2022/05/18 11:04:47;;;;;;;26.17;16.42;;;27.50;92.70;;;;;;4979984;28;20097;-82
2022/05/18 11:07:13;;;;;;;26.27;15.70;;;27.70;92.00;;;;;;4977981;28;20047;-88
2022/05/18 11:09:41;;;;;;;23.50;14.93;;;27.90;91.20;;;;;;4978148;28;20077;-84
2022/05/18 11:12:41;;;;;;;22.38;14.00;;;28.10;91.30;;;;;;4994474;28;20055;-83
2022/05/18 11:15:27;;;;;;;23.13;16.55;;;28.50;90.50;;;;;;4969696;28;20060;-83
2022/05/18 11:18:28;;;;;;;23.73;15.70;;;28.60;89.60;;;;;;4969508;28;20137;-84
2022/05/18 11:21:05;;;;;;;27.67;16.88;;;28.60;87.90;;;;;;4969152;28;20487;-86
2022/05/18 11:23:50;;;;;;;27.50;15.95;;;29.00;87.00;;;;;;4975056;28;20503;-85
2022/05/18 11:26:29;;;;;;;22.08;14.63;;;29.10;84.60;;;;;;4976024;28;20050;-86
2022/05/18 11:29:01;;;;;;;23.92;16.50;;;28.70;86.40;;;;;;4981796;28;20046;-86
2022/05/18 11:31:45;;;;;;;20.65;14.13;;;29.00;84.40;;;;;;4974505;28;20141;-85
2022/05/18 11:34:20;;;;;;;25.27;15.63;;;29.00;87.70;;;;;;4972614;28;20055;-85
2022/05/18 11:36:51;;;;;;;25.33;15.25;;;29.00;84.50;;;;;;4991463;28;20452;-82
2022/05/18 11:39:32;;;;;;;27.38;16.75;;;28.80;84.00;;;;;;4977907;28;20118;-81
2022/05/18 11:42:29;;;;;;;24.38;15.23;;;28.70;79.90;;;;;;4973095;28;20573;-83
2022/05/18 11:45:26;;;;;;;23.88;14.98;;;28.20;79.70;;;;;;4958049;28;20082;-82
2022/05/18 11:48:38;;;;;;;26.35;15.70;;;28.20;84.60;;;;;;4992424;28;20051;-81
2022/05/18 11:51:31;;;;;;;25.20;16.13;;;28.10;85.50;;;;;;4966431;28;20047;-81
2022/05/18 11:54:12;;;;;;;24.92;15.40;;;28.00;83.30;;;;;;4946004;28;20511;-79
2022/05/18 11:56:56;;;;;;;26.23;15.82;;;28.00;86.60;;;;;;4972990;28;20541;-80
2022/05/18 11:59:45;;;;;;;23.42;14.35;;;27.90;84.80;;;;;;4975005;28;20046;-78
2022/05/18 12:02:14;;;;;;;29.10;15.75;;;28.10;84.70;;;;;;4973758;28;20105;-80
2022/05/18 12:05:08;;;;;;;32.90;16.55;;;28.50;84.40;;;;;;4972372;28;20073;-78
2022/05/18 12:07:34;;;;;;;27.90;16.77;;;28.60;84.20;;;;;;4972182;28;20069;-81
2022/05/18 12:10:37;;;;;;;23.80;17.73;;;28.60;84.00;;;;;;4970537;28;20043;-77
2022/05/18 12:13:03;;;;;;;25.38;15.00;;;28.00;83.30;;;;;;4971973;28;20051;-80
2022/05/18 12:15:41;;;;;;;29.58;15.68;;;28.00;85.70;;;;;;4973261;28;20050;-81
2022/05/18 12:18:26;;;;;;;27.30;16.13;;;27.90;85.30;;;;;;4975684;28;20047;-79
2022/05/18 12:21:12;;;;;;;22.40;14.80;;;27.80;85.20;;;;;;4970901;28;20043;-83
2022/05/18 12:23:45;;;;;;;28.83;16.38;;;27.60;84.70;;;;;;4971810;28;20066;-82
2022/05/18 12:26:15;;;;;;;27.95;15.73;;;27.20;86.30;;;;;;4971934;28;20129;-82
2022/05/18 12:28:42;;;;;;;23.50;15.02;;;26.80;88.10;;;;;;4974968;28;20047;-86
2022/05/18 12:31:09;;;;;;;22.52;14.85;;;26.50;90.00;;;;;;4976777;28;20410;-82
2022/05/18 12:34:06;;;;;;;22.73;15.10;;;26.80;90.30;;;;;;4976627;28;20622;-86
2022/05/18 12:36:44;;;;;;;25.45;16.27;;;26.40;90.30;;;;;;4973712;28;20054;-83
2022/05/18 12:39:17;;;;;;;27.20;16.02;;;26.40;90.50;;;;;;4978232;28;20112;-83
2022/05/18 12:41:54;;;;;;;26.80;15.38;;;26.10;90.70;;;;;;4982071;28;20109;-83
2022/05/18 12:44:41;;;;;;;27.33;15.35;;;25.60;91.00;;;;;;4974294;28;20051;-79
2022/05/18 12:47:29;;;;;;;29.63;17.90;;;25.10;92.70;;;;;;4976135;28;20419;-80
2022/05/18 12:50:03;;;;;;;27.65;16.33;;;24.60;93.50;;;;;;4979365;28;20081;-83
2022/05/18 12:52:52;;;;;;;29.27;16.70;;;24.00;94.20;;;;;;4974988;28;20066;-82
2022/05/18 12:55:42;;;;;;;27.05;15.13;;;23.90;95.40;;;;;;4973759;28;20439;-80
2022/05/18 12:58:08;;;;;;;27.98;14.75;;;23.90;95.60;;;;;;4974929;28;20070;-79
2022/05/18 13:00:52;;;;;;;27.00;14.57;;;24.00;95.30;;;;;;4973406;28;20059;-79
2022/05/18 13:03:17;;;;;;;28.77;14.80;;;23.40;96.30;;;;;;4989346;28;20062;-77
2022/05/18 13:05:58;;;;;;;29.98;16.00;;;23.60;96.40;;;;;;4974646;28;20055;-78
2022/05/18 13:08:24;;;;;;;23.55;15.13;;;23.40;96.70;;;;;;4978741;28;20094;-80